Temp: 7.1°C   Baro: 1002.8mb
  Wind: 2.9mph   Dir: SSE (157°)
  Rain: 0.0mm (0.0mm/hr)
  Solar: 60W/m2  Hum: 81%
 
Cotswold Observatory Historical Data
Daily Summary for December 03, 2019 Units:  English    Metric   Both
Next Day »
Daily Weekly Monthly Yearly Custom
  High: Low: Average:
Temperature: 49.6 °F -0 °F 40.3 °F
Dew Point: 39.9 °F -0 °F 36.3 °F
Humidity: 95% % 85%
Wind Speed: 8.9mph 0mph 0.7mph
Wind Gust: 11mph - -
Wind direction- - SSW
Pressure: 30.5 in 30.2 in -
Precipitation: 0 in    
Historical Graphs
 
 
Tabular Data for December 03, 2019
Time Temperature Dew Point Pressure Wind direction Wind Speed Wind Gust Humidity Rainfall Rate (Hourly) solar
00:00 36.7 °F 35.1 °F 30.5 in Calm     94% 0 in 0.00 W/m2
00:05 36.7 °F 35.1 °F 30.5 in Calm     94% 0 in 0.00 W/m2
00:10 -0 °F -0 °F 30.5 in Calm     % 0 in W/m2
00:15 -0 °F -0 °F 30.5 in Calm     % 0 in W/m2
00:20 -0 °F -0 °F 30.5 in Calm     % 0 in W/m2
00:25 -0 °F -0 °F 30.5 in Calm     % 0 in W/m2
00:30 -0 °F -0 °F 30.5 in Calm     % 0 in W/m2
00:35 37 °F 35.4 °F 30.5 in Calm     94% 0 in 0.00 W/m2
00:40 37 °F 35.4 °F 30.5 in Calm     94% 0 in 0.00 W/m2
00:45 36.9 °F 35.2 °F 30.5 in Calm     94% 0 in 0.00 W/m2
00:50 36.9 °F 35.2 °F 30.5 in Calm     94% 0 in 0.00 W/m2
00:55 36.9 °F 35.2 °F 30.5 in Calm     94% 0 in 0.00 W/m2
01:00 37 °F 35.4 °F 30.5 in Calm     94% 0 in 0.00 W/m2
01:05 37.2 °F 36 °F 30.5 in Calm     95% 0 in 0.00 W/m2
01:10 37.2 °F 35.6 °F 30.5 in Calm     94% 0 in 0.00 W/m2
01:15 37.2 °F 35.6 °F 30.5 in Calm     94% 0 in 0.00 W/m2
01:20 37 °F 35.4 °F 30.5 in Calm     94% 0 in 0.00 W/m2
01:25 37 °F 35.4 °F 30.4 in Calm     94% 0 in 0.00 W/m2
01:30 37 °F 35.4 °F 30.4 in Calm     94% 0 in 0.00 W/m2
01:35 37 °F 35.4 °F 30.4 in Calm     94% 0 in 0.00 W/m2
01:40 37 °F 35.4 °F 30.4 in Calm     94% 0 in 0.00 W/m2
01:45 37 °F 35.4 °F 30.4 in Calm     94% 0 in 0.00 W/m2
01:50 37 °F 35.4 °F 30.4 in Calm     94% 0 in 0.00 W/m2
01:55 37 °F 35.4 °F 30.4 in Calm     94% 0 in 0.00 W/m2
02:00 37.2 °F 36 °F 30.4 in Calm     95% 0 in 0.00 W/m2
02:05 37.4 °F 36.1 °F 30.4 in Calm     95% 0 in 0.00 W/m2
02:10 37.6 °F 36 °F 30.4 in Calm     94% 0 in 0.00 W/m2
02:15 37.6 °F 36 °F 30.4 in Calm     94% 0 in 0.00 W/m2
02:20 37.8 °F 36.5 °F 30.4 in Calm     95% 0 in 0.00 W/m2
02:25 37.8 °F 36.5 °F 30.4 in Calm     95% 0 in 0.00 W/m2
02:30 37.6 °F 36 °F 30.4 in Calm     94% 0 in 0.00 W/m2
02:35 37.6 °F 36 °F 30.4 in Calm     94% 0 in 0.00 W/m2
02:40 37.6 °F 36 °F 30.4 in Calm     94% 0 in 0.00 W/m2
02:45 37.8 °F 36.5 °F 30.4 in Calm     95% 0 in 0.00 W/m2
02:50 37.8 °F 36.5 °F 30.4 in Calm     95% 0 in 0.00 W/m2
02:55 37.8 °F 36.1 °F 30.4 in Calm     94% 0 in 0.00 W/m2
03:00 37.8 °F 36.5 °F 30.4 in Calm     95% 0 in 0.00 W/m2
03:05 37.9 °F 36.7 °F 30.4 in Calm     95% 0 in 0.00 W/m2
03:10 37.9 °F 36.3 °F 30.4 in Calm     94% 0 in 0.00 W/m2
03:15 37.9 °F 36.3 °F 30.4 in Calm     94% 0 in 0.00 W/m2
03:20 37.9 °F 36.7 °F 30.4 in Calm     95% 0 in 0.00 W/m2
03:25 37.9 °F 36.3 °F 30.4 in Calm     94% 0 in 0.00 W/m2
03:30 37.9 °F 36.3 °F 30.4 in Calm     94% 0 in 0.00 W/m2
03:35 38.1 °F 36.9 °F 30.4 in Calm     95% 0 in 0.00 W/m2
03:40 38.1 °F 36.9 °F 30.4 in Calm     95% 0 in 0.00 W/m2
03:45 38.1 °F 36.5 °F 30.4 in Calm     94% 0 in 0.00 W/m2
03:50 38.1 °F 36.5 °F 30.4 in Calm     94% 0 in 0.00 W/m2
03:55 38.1 °F 36.5 °F 30.4 in Calm     94% 0 in 0.00 W/m2
04:00 38.1 °F 36.5 °F 30.4 in Calm     94% 0 in 0.00 W/m2
04:05 38.1 °F 36.5 °F 30.4 in Calm     94% 0 in 0.00 W/m2
04:10 38.1 °F 36.5 °F 30.4 in Calm     94% 0 in 0.00 W/m2
04:15 38.3 °F 37 °F 30.4 in Calm     95% 0 in 0.00 W/m2
04:20 38.5 °F 37.2 °F 30.4 in Calm     95% 0 in 0.00 W/m2
04:25 38.5 °F 37.2 °F 30.4 in Calm     95% 0 in 0.00 W/m2
04:30 38.7 °F 37.4 °F 30.4 in Calm     95% 0 in 0.00 W/m2
04:35 38.8 °F 37.6 °F 30.4 in Calm     95% 0 in 0.00 W/m2
04:40 39 °F 37.8 °F 30.4 in Calm     95% 0 in 0.00 W/m2
04:45 39 °F 37.8 °F 30.4 in Calm     95% 0 in 0.00 W/m2
04:50 39 °F 37.8 °F 30.4 in Calm     95% 0 in 0.00 W/m2
04:55 39 °F 37.8 °F 30.4 in Calm     95% 0 in 0.00 W/m2
05:00 38.8 °F 37.2 °F 30.4 in Calm     94% 0 in 0.00 W/m2
05:05 38.8 °F 37.6 °F 30.4 in Calm     95% 0 in 0.00 W/m2
05:10 39 °F 37.8 °F 30.4 in Calm     95% 0 in 0.00 W/m2
05:15 39 °F 37.8 °F 30.4 in Calm     95% 0 in 0.00 W/m2
05:20 39 °F 37.4 °F 30.4 in Calm     94% 0 in 0.00 W/m2
05:25 39 °F 37.8 °F 30.4 in Calm     95% 0 in 0.00 W/m2
05:30 39 °F 37.4 °F 30.4 in Calm     94% 0 in 0.00 W/m2
05:35 39 °F 37.4 °F 30.4 in Calm     94% 0 in 0.00 W/m2
05:40 39 °F 37.4 °F 30.4 in Calm     94% 0 in 0.00 W/m2
05:45 39 °F 37.4 °F 30.4 in Calm     94% 0 in 0.00 W/m2
05:50 39 °F 37.4 °F 30.4 in Calm     94% 0 in 0.00 W/m2
05:55 39 °F 37.4 °F 30.4 in Calm     94% 0 in 0.00 W/m2
06:00 39.2 °F 37.9 °F 30.4 in Calm     95% 0 in 0.00 W/m2
06:05 39.2 °F 37.6 °F 30.4 in Calm     94% 0 in 0.00 W/m2
06:10 39.2 °F 37.6 °F 30.4 in Calm     94% 0 in 0.00 W/m2
06:15 39.4 °F 38.1 °F 30.4 in Calm     95% 0 in 0.00 W/m2
06:20 39.6 °F 38.3 °F 30.4 in Calm     95% 0 in 0.00 W/m2
06:25 39.6 °F 38.3 °F 30.4 in Calm     95% 0 in 0.00 W/m2
06:30 39.4 °F 38.1 °F 30.4 in Calm     95% 0 in 0.00 W/m2
06:35 39.6 °F 38.3 °F 30.4 in Calm     95% 0 in 0.00 W/m2
06:40 39.6 °F 38.3 °F 30.4 in Calm     95% 0 in 0.00 W/m2
06:45 39.6 °F 38.3 °F 30.4 in Calm     95% 0 in 0.00 W/m2
06:50 39.6 °F 38.3 °F 30.4 in Calm     95% 0 in 0.00 W/m2
06:55 39.6 °F 38.3 °F 30.4 in Calm     95% 0 in 0.00 W/m2
07:00 39.6 °F 38.3 °F 30.4 in Calm     95% 0 in 0.00 W/m2
07:05 39.6 °F 38.3 °F 30.4 in Calm     95% 0 in 0.00 W/m2
07:10 39.6 °F 37.9 °F 30.4 in Calm     94% 0 in 0.00 W/m2
07:15 39.6 °F 37.9 °F 30.4 in Calm     94% 0 in 0.00 W/m2
07:20 39.6 °F 37.9 °F 30.4 in Calm     94% 0 in 0.00 W/m2
07:25 39.6 °F 37.9 °F 30.4 in Calm     94% 0 in 0.00 W/m2
07:30 39.6 °F 38.3 °F 30.4 in Calm     95% 0 in 0.00 W/m2
07:35 39.6 °F 38.3 °F 30.4 in Calm     95% 0 in 0.00 W/m2
07:40 39.6 °F 38.3 °F 30.4 in Calm     95% 0 in 0.00 W/m2
07:45 39.7 °F 38.1 °F 30.4 in SW 2 mph 4 mph 94% 0 in 0.00 W/m2
07:50 39.7 °F 38.1 °F 30.4 in SW 0.9 mph 7 mph 94% 0 in 0.00 W/m2
07:55 39.7 °F 38.1 °F 30.4 in SW 2 mph 4 mph 94% 0 in 0.00 W/m2
08:00 39.7 °F 38.1 °F 30.4 in SW 0.9 mph 3 mph 94% 0 in 5.00 W/m2
08:05 40.1 °F 38.3 °F 30.4 in Calm   2 mph 93% 0 in 7.00 W/m2
08:10 40.5 °F 38.3 °F 30.4 in Calm   5 mph 92% 0 in 9.00 W/m2
08:15 40.6 °F 38.3 °F 30.4 in Calm     91% 0 in 14.00 W/m2
08:20 40.8 °F 38.1 °F 30.4 in Calm   5 mph 90% 0 in 14.00 W/m2
08:25 40.8 °F 37.8 °F 30.4 in Calm     89% 0 in 16.00 W/m2
08:30 40.8 °F 37.8 °F 30.4 in Calm     89% 0 in 19.00 W/m2
08:35 40.8 °F 37.8 °F 30.4 in Calm     89% 0 in 19.00 W/m2
08:40 40.6 °F 37.6 °F 30.4 in Calm     89% 0 in 18.00 W/m2
08:45 40.6 °F 37.6 °F 30.4 in Calm     89% 0 in 21.00 W/m2
08:50 40.6 °F 37.6 °F 30.4 in Calm     89% 0 in 25.00 W/m2
08:55 40.6 °F 37.9 °F 30.4 in Calm     90% 0 in 33.00 W/m2
09:00 40.6 °F 37.9 °F 30.4 in Calm     90% 0 in 51.00 W/m2
09:05 40.6 °F 37.9 °F 30.4 in Calm     90% 0 in 60.00 W/m2
09:10 40.8 °F 38.1 °F 30.4 in Calm     90% 0 in 65.00 W/m2
09:15 40.8 °F 38.1 °F 30.4 in Calm     90% 0 in 65.00 W/m2
09:20 41.4 °F 39 °F 30.4 in Calm     91% 0 in 76.00 W/m2
09:25 41.7 °F 39.2 °F 30.4 in Calm     91% 0 in 65.00 W/m2
09:30 41.7 °F 39 °F 30.4 in Calm     90% 0 in 79.00 W/m2
09:35 41.5 °F 38.5 °F 30.4 in Calm     89% 0 in 104.00 W/m2
09:40 41.5 °F 38.5 °F 30.4 in Calm     89% 0 in 84.00 W/m2
09:45 41.9 °F 39.2 °F 30.4 in Calm     90% 0 in 88.00 W/m2
09:50 42.3 °F 39.6 °F 30.4 in Calm     90% 0 in 88.00 W/m2
09:55 42.3 °F 39.2 °F 30.4 in Calm     89% 0 in 90.00 W/m2
10:00 42.4 °F 39.4 °F 30.4 in Calm     89% 0 in 93.00 W/m2
10:05 42.4 °F 39.2 °F 30.4 in Calm     88% 0 in 97.00 W/m2
10:10 42.6 °F 39 °F 30.4 in Calm     87% 0 in 116.00 W/m2
10:15 43 °F 39.4 °F 30.4 in Calm     87% 0 in 179.00 W/m2
10:20 43.2 °F 39.9 °F 30.4 in Calm     88% 0 in 188.00 W/m2
10:25 43.5 °F 39.6 °F 30.4 in Calm     86% 0 in 255.00 W/m2
10:30 43.5 °F 39.4 °F 30.4 in Calm     85% 0 in 155.00 W/m2
10:35 43.9 °F 39.4 °F 30.4 in Calm     84% 0 in 134.00 W/m2
10:40 44.2 °F 39 °F 30.4 in SSE 2 mph 7 mph 82% 0 in 118.00 W/m2
10:45 45 °F 39.2 °F 30.4 in Calm   2 mph 80% 0 in 111.00 W/m2
10:50 45.3 °F 39.2 °F 30.4 in WSW 4 mph 6 mph 79% 0 in 134.00 W/m2
10:55 45.5 °F 38.3 °F 30.4 in South 0.9 mph 8 mph 76% 0 in 141.00 W/m2
11:00 45.7 °F 38.5 °F 30.4 in SW 6 mph 6 mph 76% 0 in 141.00 W/m2
11:05 45.9 °F 38.7 °F 30.4 in SW 2.9 mph 4 mph 76% 0 in 128.00 W/m2
11:10 46 °F 38.8 °F 30.4 in SW 4 mph 8 mph 76% 0 in 137.00 W/m2
11:15 46 °F 38.3 °F 30.4 in South 4.9 mph 8 mph 74% 0 in 128.00 W/m2
11:20 46.2 °F 38.5 °F 30.4 in South 4 mph 6 mph 74% 0 in 158.00 W/m2
11:25 46.4 °F 38.5 °F 30.4 in SSW 2 mph 5 mph 74% 0 in 186.00 W/m2
11:30 46.8 °F 38.8 °F 30.4 in Calm   4 mph 74% 0 in 302.00 W/m2
11:35 47.5 °F 39.2 °F 30.4 in South 2 mph 3 mph 73% 0 in 297.00 W/m2
11:40 48 °F 39 °F 30.4 in SSW 2 mph 7 mph 71% 0 in 265.00 W/m2
11:45 48.4 °F 38.7 °F 30.4 in South 6 mph 10 mph 69% 0 in 250.00 W/m2
11:50 48.6 °F 38.5 °F 30.3 in South 8.9 mph 11 mph 68% 0 in 111.00 W/m2
11:55 48.7 °F 38.3 °F 30.3 in SSW 4.9 mph 11 mph 67% 0 in 67.00 W/m2
12:00 48.7 °F 37.9 °F 30.3 in SW 2 mph 8 mph 66% 0 in 63.00 W/m2
12:05 48.7 °F 37.9 °F 30.3 in WSW 4 mph 9 mph 66% 0 in 60.00 W/m2
12:10 48.4 °F 37.2 °F 30.3 in SW 6.9 mph 11 mph 65% 0 in 169.00 W/m2
12:15 48.2 °F 35.8 °F 30.3 in South 2.9 mph 9 mph 62% 0 in 197.00 W/m2
12:20 48.4 °F 35.1 °F 30.3 in SW 8.9 mph 10 mph 60% 0 in 192.00 W/m2
12:25 48 °F 34.3 °F 30.3 in SSW 2 mph 10 mph 59% 0 in 132.00 W/m2
12:30 48 °F 34.3 °F 30.3 in SW 6 mph 9 mph 59% 0 in 139.00 W/m2
12:35 47.8 °F 34.7 °F 30.3 in SSW 2 mph 5 mph 60% 0 in 155.00 W/m2
12:40 48.2 °F 36.1 °F 30.3 in SW 4 mph 5 mph 63% 0 in 204.00 W/m2
12:45 48.6 °F 35.8 °F 30.3 in SSW 4.9 mph 7 mph 61% 0 in 223.00 W/m2
12:50 48.9 °F 36.9 °F 30.3 in SW 2 mph 3 mph 63% 0 in 216.00 W/m2
12:55 49.3 °F 36.3 °F 30.3 in WSW 2.9 mph 6 mph 61% 0 in 209.00 W/m2
13:00 49.5 °F 37.4 °F 30.3 in SSW 2.9 mph 7 mph 63% 0 in 200.00 W/m2
13:05 49.5 °F 37.4 °F 30.3 in SSW 4.9 mph 8 mph 63% 0 in 192.00 W/m2
13:10 49.5 °F 37 °F 30.3 in SSE 2.9 mph 9 mph 62% 0 in 185.00 W/m2
13:15 49.5 °F 38.1 °F 30.3 in South 2 mph 5 mph 65% 0 in 186.00 W/m2
13:20 49.5 °F 37.8 °F 30.3 in SW 6.9 mph 8 mph 64% 0 in 181.00 W/m2
13:25 49.1 °F 38.3 °F 30.3 in South 2.9 mph 3 mph 66% 0 in 172.00 W/m2
13:30 49.5 °F 39 °F 30.3 in Calm   3 mph 67% 0 in 162.00 W/m2
13:35 49.6 °F 38.7 °F 30.3 in South 4 mph 7 mph 66% 0 in 153.00 W/m2
13:40 49.3 °F 38.5 °F 30.3 in WSW 2.9 mph 9 mph 66% 0 in 148.00 W/m2
13:45 48.9 °F 38.8 °F 30.3 in SW 2.9 mph 4 mph 68% 0 in 125.00 W/m2
13:50 49.3 °F 39.6 °F 30.3 in SSE 0.9 mph 5 mph 69% 0 in 163.00 W/m2
13:55 49.6 °F 39.6 °F 30.3 in South 4 mph 4 mph 68% 0 in 169.00 W/m2
14:00 49.6 °F 39.6 °F 30.3 in SSE 0.9 mph 7 mph 68% 0 in 156.00 W/m2
14:05 49.5 °F 39.4 °F 30.3 in WSW 2.9 mph 7 mph 68% 0 in 134.00 W/m2
14:10 49.3 °F 39.6 °F 30.3 in WSW 2.9 mph 8 mph 69% 0 in 151.00 W/m2
14:15 48.9 °F 39.2 °F 30.3 in SW 4 mph 8 mph 69% 0 in 93.00 W/m2
14:20 48.6 °F 39.2 °F 30.3 in SSE 6 mph 8 mph 70% 0 in 83.00 W/m2
14:25 48.4 °F 39 °F 30.3 in South 0.9 mph 4 mph 70% 0 in 70.00 W/m2
14:30 48.4 °F 39 °F 30.3 in South 2 mph 3 mph 70% 0 in 102.00 W/m2
14:35 48.6 °F 39.2 °F 30.3 in South 2.9 mph 8 mph 70% 0 in 98.00 W/m2
14:40 48.7 °F 39.4 °F 30.3 in Calm   4 mph 70% 0 in 65.00 W/m2
14:45 48.7 °F 39.4 °F 30.3 in Calm     70% 0 in 51.00 W/m2
14:50 48.7 °F 39.4 °F 30.3 in South 2 mph 4 mph 70% 0 in 56.00 W/m2
14:55 48.7 °F 39.4 °F 30.3 in South 2.9 mph 6 mph 70% 0 in 56.00 W/m2
15:00 48.6 °F 39.6 °F 30.3 in South 4.9 mph 7 mph 71% 0 in 51.00 W/m2
15:05 48.4 °F 39.4 °F 30.3 in Calm   4 mph 71% 0 in 46.00 W/m2
15:10 48.4 °F 39.7 °F 30.3 in South 0.9 mph 3 mph 72% 0 in 42.00 W/m2
15:15 48.2 °F 39.2 °F 30.3 in SSE 2.9 mph 7 mph 71% 0 in 40.00 W/m2
15:20 48 °F 39.4 °F 30.3 in SSE 0.9 mph 5 mph 72% 0 in 32.00 W/m2
15:25 47.8 °F 39.2 °F 30.3 in South 2.9 mph 4 mph 72% 0 in 26.00 W/m2
15:30 47.8 °F 39.2 °F 30.3 in South 2.9 mph 5 mph 72% 0 in 21.00 W/m2
15:35 47.8 °F 39.2 °F 30.3 in Calm     72% 0 in 18.00 W/m2
15:40 47.8 °F 39.6 °F 30.3 in Calm     73% 0 in 14.00 W/m2
15:45 47.7 °F 39 °F 30.3 in South 2.9 mph 4 mph 72% 0 in 11.00 W/m2
15:50 47.3 °F 39 °F 30.3 in Calm     73% 0 in 11.00 W/m2
15:55 47.3 °F 39 °F 30.3 in Calm     73% 0 in 7.00 W/m2
16:00 46.9 °F 38.7 °F 30.3 in Calm   3 mph 73% 0 in 7.00 W/m2
16:05 46.9 °F 39 °F 30.3 in South 0.9 mph 3 mph 74% 0 in 0.00 W/m2
16:10 46.6 °F 38.7 °F 30.3 in Calm     74% 0 in 0.00 W/m2
16:15 46.2 °F 38.7 °F 30.3 in Calm     75% 0 in 0.00 W/m2
16:20 45.7 °F 38.5 °F 30.3 in Calm     76% 0 in 0.00 W/m2
16:25 45.1 °F 37.9 °F 30.3 in Calm     76% 0 in 0.00 W/m2
16:30 44.4 °F 37.6 °F 30.3 in Calm     77% 0 in 0.00 W/m2
16:35 43.9 °F 37.8 °F 30.3 in Calm     79% 0 in 0.00 W/m2
16:40 43.5 °F 37.4 °F 30.3 in Calm     79% 0 in 0.00 W/m2
16:45 43.3 °F 37.6 °F 30.3 in Calm     80% 0 in 0.00 W/m2
16:50 43.2 °F 37.8 °F 30.3 in Calm     81% 0 in 0.00 W/m2
16:55 43.2 °F 37.8 °F 30.3 in Calm     81% 0 in 0.00 W/m2
17:00 43 °F 37.9 °F 30.3 in Calm     82% 0 in 0.00 W/m2
17:05 43 °F 37.9 °F 30.3 in Calm     82% 0 in 0.00 W/m2
17:10 42.6 °F 37.6 °F 30.3 in Calm     82% 0 in 0.00 W/m2
17:15 42.4 °F 37.6 °F 30.3 in Calm     83% 0 in 0.00 W/m2
17:20 42.3 °F 37.4 °F 30.3 in Calm     83% 0 in 0.00 W/m2
17:25 42.1 °F 37.2 °F 30.3 in Calm     83% 0 in 0.00 W/m2
17:30 41.7 °F 36.9 °F 30.3 in Calm     83% 0 in 0.00 W/m2
17:35 41.5 °F 37 °F 30.3 in Calm     84% 0 in 0.00 W/m2
17:40 41.5 °F 37.4 °F 30.3 in Calm     85% 0 in 0.00 W/m2
17:45 41.5 °F 37.4 °F 30.3 in Calm     85% 0 in 0.00 W/m2
17:50 41.4 °F 37.2 °F 30.3 in Calm     85% 0 in 0.00 W/m2
17:55 41.2 °F 37.4 °F 30.3 in Calm     86% 0 in 0.00 W/m2
18:00 40.8 °F 36.7 °F 30.3 in Calm     85% 0 in 0.00 W/m2
18:05 40.8 °F 37 °F 30.3 in Calm     86% 0 in 0.00 W/m2
18:10 40.6 °F 37 °F 30.3 in Calm     87% 0 in 0.00 W/m2
18:15 40.6 °F 37 °F 30.3 in Calm     87% 0 in 0.00 W/m2
18:20 40.6 °F 37.4 °F 30.3 in Calm     88% 0 in 0.00 W/m2
18:25 40.8 °F 37.6 °F 30.3 in Calm     88% 0 in 0.00 W/m2
18:30 40.6 °F 37 °F 30.3 in Calm     87% 0 in 0.00 W/m2
18:35 40.3 °F 36.7 °F 30.3 in Calm     87% 0 in 0.00 W/m2
18:40 40.1 °F 36.9 °F 30.3 in Calm     88% 0 in 0.00 W/m2
18:45 40.1 °F 36.9 °F 30.3 in Calm     88% 0 in 0.00 W/m2
18:50 39.7 °F 36.5 °F 30.3 in Calm     88% 0 in 0.00 W/m2
18:55 39.6 °F 36.5 °F 30.3 in Calm     89% 0 in 0.00 W/m2
19:00 39.4 °F 36.1 °F 30.3 in Calm     88% 0 in 0.00 W/m2
19:05 39.6 °F 36.5 °F 30.3 in Calm     89% 0 in 0.00 W/m2
19:10 39.4 °F 36.5 °F 30.3 in Calm     89% 0 in 0.00 W/m2
19:15 39.6 °F 36.9 °F 30.3 in Calm     90% 0 in 0.00 W/m2
19:20 39.6 °F 36.9 °F 30.3 in Calm     90% 0 in 0.00 W/m2
19:25 39.6 °F 36.9 °F 30.3 in Calm     90% 0 in 0.00 W/m2
19:30 39.6 °F 36.9 °F 30.3 in Calm     90% 0 in 0.00 W/m2
19:35 39.4 °F 36.7 °F 30.3 in Calm     90% 0 in 0.00 W/m2
19:40 39.2 °F 36.5 °F 30.3 in Calm     90% 0 in 0.00 W/m2
19:45 38.8 °F 36.1 °F 30.3 in Calm     90% 0 in 0.00 W/m2
19:50 38.8 °F 36.1 °F 30.3 in Calm     90% 0 in 0.00 W/m2
19:55 38.8 °F 36.1 °F 30.2 in Calm     90% 0 in 0.00 W/m2
20:00 38.8 °F 36.5 °F 30.2 in Calm     91% 0 in 0.00 W/m2
20:05 38.5 °F 35.8 °F 30.2 in Calm     90% 0 in 0.00 W/m2
20:10 38.3 °F 36 °F 30.2 in Calm     91% 0 in 0.00 W/m2
20:15 38.3 °F 36 °F 30.2 in Calm     91% 0 in 0.00 W/m2
20:20 37.9 °F 35.2 °F 30.2 in Calm     90% 0 in 0.00 W/m2
20:25 37.9 °F 35.6 °F 30.2 in Calm     91% 0 in 0.00 W/m2
20:30 37.8 °F 35.4 °F 30.2 in Calm     91% 0 in 0.00 W/m2
20:35 37.2 °F 34.9 °F 30.2 in Calm     91% 0 in 0.00 W/m2
20:40 37 °F 34.7 °F 30.2 in Calm     91% 0 in 0.00 W/m2
20:45 37.2 °F 35.1 °F 30.2 in Calm     92% 0 in 0.00 W/m2
20:50 37 °F 34.7 °F 30.2 in Calm     91% 0 in 0.00 W/m2
20:55 36.9 °F 34.5 °F 30.2 in Calm     91% 0 in 0.00 W/m2
21:00 36.7 °F 34.5 °F 30.2 in Calm     92% 0 in 0.00 W/m2
21:05 36.5 °F 34.3 °F 30.2 in Calm     92% 0 in 0.00 W/m2
21:10 36.3 °F 34.2 °F 30.2 in Calm     92% 0 in 0.00 W/m2
21:15 36.3 °F 34.2 °F 30.2 in Calm     92% 0 in 0.00 W/m2
21:20 36.3 °F 34.2 °F 30.2 in Calm     92% 0 in 0.00 W/m2
21:25 36.3 °F 34.2 °F 30.2 in Calm     92% 0 in 0.00 W/m2
21:30 36.3 °F 34.2 °F 30.2 in Calm     92% 0 in 0.00 W/m2
21:35 36.1 °F 34 °F 30.2 in Calm     92% 0 in 0.00 W/m2
21:40 36 °F 33.8 °F 30.2 in Calm     92% 0 in 0.00 W/m2
21:45 36 °F 33.8 °F 30.2 in Calm     92% 0 in 0.00 W/m2
21:50 36 °F 34.2 °F 30.2 in Calm     93% 0 in 0.00 W/m2
21:55 36 °F 33.8 °F 30.2 in Calm     92% 0 in 0.00 W/m2
22:00 35.6 °F 33.4 °F 30.2 in Calm     92% 0 in 0.00 W/m2
22:05 35.4 °F 33.6 °F 30.2 in Calm     93% 0 in 0.00 W/m2
22:10 35.2 °F 33.1 °F 30.2 in Calm     92% 0 in 0.00 W/m2
22:15 35.2 °F 33.1 °F 30.2 in Calm     92% 0 in 0.00 W/m2
22:20 35.1 °F 32.9 °F 30.2 in Calm     92% 0 in 0.00 W/m2
22:25 34.9 °F 32.7 °F 30.2 in Calm     92% 0 in 0.00 W/m2
22:30 34.7 °F 32.9 °F 30.2 in Calm     93% 0 in 0.00 W/m2
22:35 34.9 °F 33.1 °F 30.2 in Calm     93% 0 in 0.00 W/m2
22:40 34.9 °F 33.1 °F 30.2 in Calm     93% 0 in 0.00 W/m2
22:45 34.7 °F 32.9 °F 30.2 in Calm     93% 0 in 0.00 W/m2
22:50 34.5 °F 32.7 °F 30.2 in Calm     93% 0 in 0.00 W/m2
22:55 34.5 °F 32.7 °F 30.2 in Calm     93% 0 in 0.00 W/m2
23:00 34.3 °F 32.5 °F 30.2 in Calm     93% 0 in 0.00 W/m2
23:05 34.3 °F 32.5 °F 30.2 in Calm     93% 0 in 0.00 W/m2
23:10 34.3 °F 32.5 °F 30.2 in Calm     93% 0 in 0.00 W/m2
23:15 34.3 °F 32.5 °F 30.2 in Calm     93% 0 in 0.00 W/m2
23:20 34.2 °F 32.4 °F 30.2 in Calm     93% 0 in 0.00 W/m2
23:25 34 °F 32.2 °F 30.2 in Calm     93% 0 in 0.00 W/m2
23:30 33.8 °F 32 °F 30.2 in Calm     93% 0 in 0.00 W/m2
23:35 33.8 °F 32 °F 30.2 in Calm     93% 0 in 0.00 W/m2
23:40 33.6 °F 31.8 °F 30.2 in Calm     93% 0 in 0.00 W/m2
23:45 33.4 °F 31.6 °F 30.2 in Calm     93% 0 in 0.00 W/m2
23:50 33.4 °F 31.6 °F 30.2 in Calm     93% 0 in 0.00 W/m2
23:55 33.4 °F 31.6 °F 30.2 in Calm     93% 0 in 0.00 W/m2